Airfield :
LOGIN :

Register | Disclaimer

   EN    FR    IT 

 










Legend :    VFR   Marginal VFR   IFR   Intensive IFR   Very Intensive IFR
Visi :
Ceiling :
>= 8 km
>= 3000ft
5 to 8 km
1000 to 3000 ft
1500m to 5 km
500 to 1000 ft
800 to 1500m
200 to 500 ft
< 800m
< 200 ft
Symbols :   Thunderstorms  Fog  Heavy snow  Heavy precipitations  Wind > 20 kt
SIGMETs :     Misc.  Thunderstorms  Icing  Turbulence  Mountain Waves  Volcanic Ashes






- Airport Elevation : 203 ft
- IATA code : XMJ


LFBM - Mont-De-Marsan

CURRENT METAR :
  • 211600Z AUTO 24005KT 130V290 9999 OVC034 15/06 Q1031 NOSIG

EXPIRED METARs :
  • 211530Z AUTO 26003KT 180V300 9999 OVC032 15/07 Q1031 NOSIG
  • 211500Z AUTO 29003KT 250V360 9999 OVC033 14/07 Q1031 NOSIG
  • 211430Z AUTO 33005KT 9999 OVC032 14/07 Q1031 NOSIG
  • 211400Z AUTO 34006KT 310V020 9999 OVC035 14/07 Q1032 NOSIG
  • 211330Z AUTO 32004KT 270V350 9999 BKN024 OVC031 13/08 Q1032 NOSIG

TAF TAF LFBM
Valid from the 21 at 15:00 until the 22 at 15:00 UTC


211400Z 2115/2215 VRB02KT 9999 OVC035
TEMPO 2121/2209 3000 BCFG
PROB30
TEMPO 2200/2206 0600 FG VV///



MET'MAP, your aeronautical weather chart ! - Copyright ORBIFLY December 2007 - Disclaimer

ORBIFLY MET'MAP TEAM :

Programming & Development : Alexandra Zaïnal
Concept & original design : Baudouin d'Aumeries
Assistance for programming : Marc-Olivier Méhu
Technical & hardware support : Manuel Goepfert

Contact : metmap@orbifly.com




SOURCES & CREDITS :

   NOAA